sensor_id;sensor_type;location;lat;lon;timestamp;P1;durP1;ratioP1;P2;durP2;ratioP2
21494;SDS011;10909;53.590;10.054;2022-07-26T00:01:20;3.25;;;1.98;;
21494;SDS011;10909;53.590;10.054;2022-07-26T00:03:46;6.22;;;2.00;;
21494;SDS011;10909;53.590;10.054;2022-07-26T00:06:13;4.75;;;1.77;;
21494;SDS011;10909;53.590;10.054;2022-07-26T00:08:39;3.67;;;1.80;;
21494;SDS011;10909;53.590;10.054;2022-07-26T00:11:11;2.67;;;1.77;;
21494;SDS011;10909;53.590;10.054;2022-07-26T00:13:36;4.18;;;2.03;;
21494;SDS011;10909;53.590;10.054;2022-07-26T00:16:02;3.58;;;2.35;;
21494;SDS011;10909;53.590;10.054;2022-07-26T00:18:28;4.30;;;1.92;;
21494;SDS011;10909;53.590;10.054;2022-07-26T00:20:55;2.55;;;1.48;;
21494;SDS011;10909;53.590;10.054;2022-07-26T00:23:20;3.78;;;2.00;;
21494;SDS011;10909;53.590;10.054;2022-07-26T00:25:46;5.10;;;2.00;;
21494;SDS011;10909;53.590;10.054;2022-07-26T00:28:12;4.75;;;2.03;;
21494;SDS011;10909;53.590;10.054;2022-07-26T00:30:37;5.32;;;1.98;;
21494;SDS011;10909;53.590;10.054;2022-07-26T00:33:04;3.13;;;1.90;;
21494;SDS011;10909;53.590;10.054;2022-07-26T00:35:30;4.43;;;1.70;;
21494;SDS011;10909;53.590;10.054;2022-07-26T00:37:56;3.90;;;1.70;;
21494;SDS011;10909;53.590;10.054;2022-07-26T00:40:22;2.00;;;1.40;;
21494;SDS011;10909;53.590;10.054;2022-07-26T00:42:48;3.80;;;2.03;;
21494;SDS011;10909;53.590;10.054;2022-07-26T00:45:14;3.45;;;1.65;;
21494;SDS011;10909;53.590;10.054;2022-07-26T00:47:41;2.63;;;1.52;;
21494;SDS011;10909;53.590;10.054;2022-07-26T00:50:09;5.43;;;1.92;;
21494;SDS011;10909;53.590;10.054;2022-07-26T00:52:37;3.60;;;1.48;;
21494;SDS011;10909;53.590;10.054;2022-07-26T00:55:03;3.60;;;1.65;;
21494;SDS011;10909;53.590;10.054;2022-07-26T00:57:31;3.15;;;1.48;;
21494;SDS011;10909;53.590;10.054;2022-07-26T01:00:02;2.85;;;1.40;;
21494;SDS011;10909;53.590;10.054;2022-07-26T01:02:32;2.70;;;1.35;;
21494;SDS011;10909;53.590;10.054;2022-07-26T01:04:58;2.95;;;1.45;;
21494;SDS011;10909;53.590;10.054;2022-07-26T01:07:27;3.00;;;1.65;;
21494;SDS011;10909;53.590;10.054;2022-07-26T01:09:53;3.25;;;1.60;;
21494;SDS011;10909;53.590;10.054;2022-07-26T01:12:18;3.35;;;1.83;;
21494;SDS011;10909;53.590;10.054;2022-07-26T01:14:44;3.90;;;1.77;;
21494;SDS011;10909;53.590;10.054;2022-07-26T01:17:13;2.08;;;1.40;;
21494;SDS011;10909;53.590;10.054;2022-07-26T01:19:39;4.63;;;2.10;;
21494;SDS011;10909;53.590;10.054;2022-07-26T01:22:06;4.47;;;1.75;;
21494;SDS011;10909;53.590;10.054;2022-07-26T01:24:31;3.38;;;1.75;;
21494;SDS011;10909;53.590;10.054;2022-07-26T01:26:57;2.95;;;1.38;;
21494;SDS011;10909;53.590;10.054;2022-07-26T01:29:23;1.73;;;1.33;;
21494;SDS011;10909;53.590;10.054;2022-07-26T01:31:49;3.42;;;1.55;;
21494;SDS011;10909;53.590;10.054;2022-07-26T01:34:16;3.42;;;1.40;;
21494;SDS011;10909;53.590;10.054;2022-07-26T01:36:42;2.97;;;1.48;;
21494;SDS011;10909;53.590;10.054;2022-07-26T01:39:07;4.80;;;1.70;;
21494;SDS011;10909;53.590;10.054;2022-07-26T01:41:33;3.05;;;1.50;;
21494;SDS011;10909;53.590;10.054;2022-07-26T01:43:59;3.38;;;1.30;;
21494;SDS011;10909;53.590;10.054;2022-07-26T01:46:25;3.13;;;1.38;;
21494;SDS011;10909;53.590;10.054;2022-07-26T01:48:51;3.50;;;1.75;;
21494;SDS011;10909;53.590;10.054;2022-07-26T01:51:16;3.03;;;1.45;;
21494;SDS011;10909;53.590;10.054;2022-07-26T01:53:42;5.82;;;1.80;;
21494;SDS011;10909;53.590;10.054;2022-07-26T01:56:15;2.78;;;1.48;;
21494;SDS011;10909;53.590;10.054;2022-07-26T01:58:41;3.80;;;1.50;;
21494;SDS011;10909;53.590;10.054;2022-07-26T02:01:13;3.38;;;1.67;;
21494;SDS011;10909;53.590;10.054;2022-07-26T02:03:38;3.45;;;1.55;;
21494;SDS011;10909;53.590;10.054;2022-07-26T02:06:14;4.68;;;1.60;;
21494;SDS011;10909;53.590;10.054;2022-07-26T02:08:39;3.80;;;1.70;;
21494;SDS011;10909;53.590;10.054;2022-07-26T02:11:11;4.78;;;2.10;;
21494;SDS011;10909;53.590;10.054;2022-07-26T02:13:38;3.35;;;1.50;;
21494;SDS011;10909;53.590;10.054;2022-07-26T02:16:14;2.85;;;1.70;;
21494;SDS011;10909;53.590;10.054;2022-07-26T02:18:40;6.00;;;1.80;;
21494;SDS011;10909;53.590;10.054;2022-07-26T02:21:12;5.80;;;1.75;;
21494;SDS011;10909;53.590;10.054;2022-07-26T02:23:38;4.63;;;1.80;;
21494;SDS011;10909;53.590;10.054;2022-07-26T02:26:04;4.05;;;2.00;;
21494;SDS011;10909;53.590;10.054;2022-07-26T02:28:29;3.92;;;1.60;;
21494;SDS011;10909;53.590;10.054;2022-07-26T02:30:55;4.53;;;1.90;;
21494;SDS011;10909;53.590;10.054;2022-07-26T02:33:21;4.60;;;1.65;;
21494;SDS011;10909;53.590;10.054;2022-07-26T02:35:46;4.88;;;1.63;;
21494;SDS011;10909;53.590;10.054;2022-07-26T02:38:13;6.50;;;1.95;;
21494;SDS011;10909;53.590;10.054;2022-07-26T02:40:40;4.38;;;1.60;;
21494;SDS011;10909;53.590;10.054;2022-07-26T02:43:06;3.58;;;1.70;;
21494;SDS011;10909;53.590;10.054;2022-07-26T02:45:33;3.05;;;1.58;;
21494;SDS011;10909;53.590;10.054;2022-07-26T02:47:59;5.78;;;1.70;;
21494;SDS011;10909;53.590;10.054;2022-07-26T02:50:26;5.68;;;2.00;;
21494;SDS011;10909;53.590;10.054;2022-07-26T02:52:53;4.50;;;1.80;;
21494;SDS011;10909;53.590;10.054;2022-07-26T02:55:20;3.88;;;1.75;;
21494;SDS011;10909;53.590;10.054;2022-07-26T02:57:47;5.28;;;1.92;;
21494;SDS011;10909;53.590;10.054;2022-07-26T03:00:17;3.53;;;1.65;;
21494;SDS011;10909;53.590;10.054;2022-07-26T03:02:45;5.97;;;1.95;;
21494;SDS011;10909;53.590;10.054;2022-07-26T03:05:13;3.78;;;1.30;;
21494;SDS011;10909;53.590;10.054;2022-07-26T03:07:39;4.60;;;1.63;;
21494;SDS011;10909;53.590;10.054;2022-07-26T03:10:04;4.63;;;1.77;;
21494;SDS011;10909;53.590;10.054;2022-07-26T03:12:31;4.85;;;1.65;;
21494;SDS011;10909;53.590;10.054;2022-07-26T03:14:56;6.47;;;2.20;;
21494;SDS011;10909;53.590;10.054;2022-07-26T03:17:22;6.10;;;2.10;;
21494;SDS011;10909;53.590;10.054;2022-07-26T03:19:48;3.60;;;1.65;;
21494;SDS011;10909;53.590;10.054;2022-07-26T03:22:13;5.03;;;1.83;;
21494;SDS011;10909;53.590;10.054;2022-07-26T03:24:39;6.97;;;1.77;;
21494;SDS011;10909;53.590;10.054;2022-07-26T03:27:04;5.20;;;1.77;;
21494;SDS011;10909;53.590;10.054;2022-07-26T03:29:30;4.93;;;1.50;;
21494;SDS011;10909;53.590;10.054;2022-07-26T03:31:56;4.82;;;2.00;;
21494;SDS011;10909;53.590;10.054;2022-07-26T03:34:21;4.95;;;1.83;;
21494;SDS011;10909;53.590;10.054;2022-07-26T03:36:47;6.88;;;1.63;;
21494;SDS011;10909;53.590;10.054;2022-07-26T03:39:13;9.02;;;1.88;;
21494;SDS011;10909;53.590;10.054;2022-07-26T03:41:39;6.35;;;2.08;;
21494;SDS011;10909;53.590;10.054;2022-07-26T03:44:04;3.80;;;1.77;;
21494;SDS011;10909;53.590;10.054;2022-07-26T03:46:30;4.10;;;1.77;;
21494;SDS011;10909;53.590;10.054;2022-07-26T03:48:56;4.05;;;1.52;;
21494;SDS011;10909;53.590;10.054;2022-07-26T03:51:21;3.95;;;1.83;;
21494;SDS011;10909;53.590;10.054;2022-07-26T03:53:47;5.45;;;1.98;;
21494;SDS011;10909;53.590;10.054;2022-07-26T03:56:13;4.65;;;1.75;;
21494;SDS011;10909;53.590;10.054;2022-07-26T03:58:59;4.75;;;1.77;;
21494;SDS011;10909;53.590;10.054;2022-07-26T04:01:27;6.70;;;1.60;;
21494;SDS011;10909;53.590;10.054;2022-07-26T04:03:53;5.18;;;1.80;;
21494;SDS011;10909;53.590;10.054;2022-07-26T04:06:19;4.15;;;1.65;;
21494;SDS011;10909;53.590;10.054;2022-07-26T04:08:45;6.93;;;1.67;;
21494;SDS011;10909;53.590;10.054;2022-07-26T04:11:17;5.70;;;2.38;;
21494;SDS011;10909;53.590;10.054;2022-07-26T04:13:42;5.50;;;2.08;;
21494;SDS011;10909;53.590;10.054;2022-07-26T04:16:14;4.53;;;2.05;;
21494;SDS011;10909;53.590;10.054;2022-07-26T04:18:40;6.18;;;2.10;;
21494;SDS011;10909;53.590;10.054;2022-07-26T04:21:12;7.55;;;1.95;;
21494;SDS011;10909;53.590;10.054;2022-07-26T04:23:37;6.18;;;2.08;;
21494;SDS011;10909;53.590;10.054;2022-07-26T04:26:03;6.65;;;2.72;;
21494;SDS011;10909;53.590;10.054;2022-07-26T04:28:29;6.18;;;2.20;;
21494;SDS011;10909;53.590;10.054;2022-07-26T04:30:55;5.28;;;1.77;;
21494;SDS011;10909;53.590;10.054;2022-07-26T04:33:22;4.97;;;2.10;;
21494;SDS011;10909;53.590;10.054;2022-07-26T04:35:48;4.07;;;1.92;;
21494;SDS011;10909;53.590;10.054;2022-07-26T04:38:13;5.82;;;2.17;;
21494;SDS011;10909;53.590;10.054;2022-07-26T04:40:39;4.40;;;2.20;;
21494;SDS011;10909;53.590;10.054;2022-07-26T04:43:05;7.32;;;2.15;;
21494;SDS011;10909;53.590;10.054;2022-07-26T04:45:30;7.85;;;2.20;;
21494;SDS011;10909;53.590;10.054;2022-07-26T04:47:56;4.70;;;1.60;;
21494;SDS011;10909;53.590;10.054;2022-07-26T04:50:22;6.40;;;1.75;;
21494;SDS011;10909;53.590;10.054;2022-07-26T04:52:49;5.13;;;2.05;;
21494;SDS011;10909;53.590;10.054;2022-07-26T04:55:15;2.60;;;1.75;;
21494;SDS011;10909;53.590;10.054;2022-07-26T04:57:42;3.35;;;1.65;;
21494;SDS011;10909;53.590;10.054;2022-07-26T05:00:09;2.72;;;1.20;;
21494;SDS011;10909;53.590;10.054;2022-07-26T05:02:36;2.53;;;1.27;;
21494;SDS011;10909;53.590;10.054;2022-07-26T05:05:04;1.75;;;1.33;;
21494;SDS011;10909;53.590;10.054;2022-07-26T05:07:41;2.20;;;1.38;;
21494;SDS011;10909;53.590;10.054;2022-07-26T05:10:08;2.15;;;1.48;;
21494;SDS011;10909;53.590;10.054;2022-07-26T05:12:34;1.42;;;1.17;;
21494;SDS011;10909;53.590;10.054;2022-07-26T05:15:05;2.28;;;1.10;;
21494;SDS011;10909;53.590;10.054;2022-07-26T05:17:31;1.80;;;1.17;;
21494;SDS011;10909;53.590;10.054;2022-07-26T05:19:57;1.60;;;1.10;;
21494;SDS011;10909;53.590;10.054;2022-07-26T05:22:22;1.60;;;1.10;;
21494;SDS011;10909;53.590;10.054;2022-07-26T05:24:48;4.82;;;1.38;;
21494;SDS011;10909;53.590;10.054;2022-07-26T05:27:14;2.05;;;1.30;;
21494;SDS011;10909;53.590;10.054;2022-07-26T05:29:39;1.40;;;1.27;;
21494;SDS011;10909;53.590;10.054;2022-07-26T05:32:05;1.25;;;1.13;;
21494;SDS011;10909;53.590;10.054;2022-07-26T05:34:31;1.15;;;1.00;;
21494;SDS011;10909;53.590;10.054;2022-07-26T05:36:56;1.75;;;1.00;;
21494;SDS011;10909;53.590;10.054;2022-07-26T05:39:22;1.30;;;1.20;;
21494;SDS011;10909;53.590;10.054;2022-07-26T05:41:48;1.70;;;1.08;;
21494;SDS011;10909;53.590;10.054;2022-07-26T05:44:13;2.70;;;1.40;;
21494;SDS011;10909;53.590;10.054;2022-07-26T05:46:39;1.33;;;1.23;;
21494;SDS011;10909;53.590;10.054;2022-07-26T05:49:05;1.23;;;1.13;;
21494;SDS011;10909;53.590;10.054;2022-07-26T05:51:31;2.42;;;1.27;;
21494;SDS011;10909;53.590;10.054;2022-07-26T05:53:58;2.47;;;1.40;;
21494;SDS011;10909;53.590;10.054;2022-07-26T05:56:24;3.22;;;1.33;;
21494;SDS011;10909;53.590;10.054;2022-07-26T05:58:50;2.50;;;1.60;;
21494;SDS011;10909;53.590;10.054;2022-07-26T06:01:15;2.08;;;1.40;;
21494;SDS011;10909;53.590;10.054;2022-07-26T06:03:41;1.73;;;1.60;;
21494;SDS011;10909;53.590;10.054;2022-07-26T06:06:17;2.40;;;1.40;;
21494;SDS011;10909;53.590;10.054;2022-07-26T06:08:43;2.28;;;1.52;;
21494;SDS011;10909;53.590;10.054;2022-07-26T06:11:15;2.70;;;1.90;;
21494;SDS011;10909;53.590;10.054;2022-07-26T06:13:40;2.05;;;1.60;;
21494;SDS011;10909;53.590;10.054;2022-07-26T06:16:15;1.80;;;1.50;;
21494;SDS011;10909;53.590;10.054;2022-07-26T06:18:41;4.55;;;1.52;;
21494;SDS011;10909;53.590;10.054;2022-07-26T06:21:16;1.98;;;1.40;;
21494;SDS011;10909;53.590;10.054;2022-07-26T06:23:42;5.25;;;1.80;;
21494;SDS011;10909;53.590;10.054;2022-07-26T06:26:13;3.10;;;1.50;;
21494;SDS011;10909;53.590;10.054;2022-07-26T06:28:39;2.97;;;1.50;;
21494;SDS011;10909;53.590;10.054;2022-07-26T06:31:05;2.80;;;1.55;;
21494;SDS011;10909;53.590;10.054;2022-07-26T06:33:47;3.30;;;1.70;;
21494;SDS011;10909;53.590;10.054;2022-07-26T06:36:16;2.33;;;1.42;;
21494;SDS011;10909;53.590;10.054;2022-07-26T06:38:42;4.95;;;1.70;;
21494;SDS011;10909;53.590;10.054;2022-07-26T06:41:16;3.00;;;1.40;;
21494;SDS011;10909;53.590;10.054;2022-07-26T06:43:42;3.13;;;1.63;;
21494;SDS011;10909;53.590;10.054;2022-07-26T06:46:14;1.83;;;1.42;;
21494;SDS011;10909;53.590;10.054;2022-07-26T06:48:40;3.60;;;1.92;;
21494;SDS011;10909;53.590;10.054;2022-07-26T06:51:22;4.13;;;1.88;;
21494;SDS011;10909;53.590;10.054;2022-07-26T06:53:47;2.55;;;1.50;;
21494;SDS011;10909;53.590;10.054;2022-07-26T06:56:13;3.25;;;1.52;;
21494;SDS011;10909;53.590;10.054;2022-07-26T06:58:40;5.00;;;1.67;;
21494;SDS011;10909;53.590;10.054;2022-07-26T07:01:15;3.40;;;1.90;;
21494;SDS011;10909;53.590;10.054;2022-07-26T07:03:41;2.63;;;1.48;;
21494;SDS011;10909;53.590;10.054;2022-07-26T07:06:06;3.10;;;1.35;;
21494;SDS011;10909;53.590;10.054;2022-07-26T07:08:47;2.95;;;1.38;;
21494;SDS011;10909;53.590;10.054;2022-07-26T07:11:16;2.38;;;1.10;;
21494;SDS011;10909;53.590;10.054;2022-07-26T07:13:42;2.50;;;1.23;;
21494;SDS011;10909;53.590;10.054;2022-07-26T07:16:07;4.18;;;1.60;;
21494;SDS011;10909;53.590;10.054;2022-07-26T07:18:45;2.05;;;1.15;;
21494;SDS011;10909;53.590;10.054;2022-07-26T07:21:17;3.85;;;1.30;;
21494;SDS011;10909;53.590;10.054;2022-07-26T07:23:42;1.80;;;1.00;;
21494;SDS011;10909;53.590;10.054;2022-07-26T07:26:17;2.53;;;1.20;;
21494;SDS011;10909;53.590;10.054;2022-07-26T07:28:44;1.83;;;0.93;;
21494;SDS011;10909;53.590;10.054;2022-07-26T07:31:22;2.50;;;1.13;;
21494;SDS011;10909;53.590;10.054;2022-07-26T07:33:48;1.83;;;0.80;;
21494;SDS011;10909;53.590;10.054;2022-07-26T07:36:14;4.07;;;1.00;;
21494;SDS011;10909;53.590;10.054;2022-07-26T07:38:39;1.85;;;1.20;;
21494;SDS011;10909;53.590;10.054;2022-07-26T07:41:15;2.95;;;0.90;;
21494;SDS011;10909;53.590;10.054;2022-07-26T07:43:40;3.00;;;1.00;;
21494;SDS011;10909;53.590;10.054;2022-07-26T07:46:09;1.00;;;0.68;;
21494;SDS011;10909;53.590;10.054;2022-07-26T07:48:36;3.80;;;1.00;;
21494;SDS011;10909;53.590;10.054;2022-07-26T07:51:04;3.22;;;1.05;;
21494;SDS011;10909;53.590;10.054;2022-07-26T07:53:39;0.52;;;0.52;;
21494;SDS011;10909;53.590;10.054;2022-07-26T07:56:08;1.88;;;0.82;;
21494;SDS011;10909;53.590;10.054;2022-07-26T07:58:34;2.38;;;0.88;;
21494;SDS011;10909;53.590;10.054;2022-07-26T08:01:01;3.03;;;0.80;;
21494;SDS011;10909;53.590;10.054;2022-07-26T08:03:26;2.33;;;1.00;;
21494;SDS011;10909;53.590;10.054;2022-07-26T08:05:52;1.77;;;0.80;;
21494;SDS011;10909;53.590;10.054;2022-07-26T08:08:18;2.28;;;0.98;;
21494;SDS011;10909;53.590;10.054;2022-07-26T08:10:50;1.75;;;0.82;;
21494;SDS011;10909;53.590;10.054;2022-07-26T08:13:16;1.67;;;0.70;;
21494;SDS011;10909;53.590;10.054;2022-07-26T08:15:42;1.10;;;0.68;;
21494;SDS011;10909;53.590;10.054;2022-07-26T08:18:07;3.17;;;0.82;;
21494;SDS011;10909;53.590;10.054;2022-07-26T08:20:33;1.33;;;0.82;;
21494;SDS011;10909;53.590;10.054;2022-07-26T08:22:59;0.98;;;0.70;;
21494;SDS011;10909;53.590;10.054;2022-07-26T08:25:26;2.33;;;1.00;;
21494;SDS011;10909;53.590;10.054;2022-07-26T08:27:52;2.95;;;1.00;;
21494;SDS011;10909;53.590;10.054;2022-07-26T08:30:17;2.13;;;0.65;;
21494;SDS011;10909;53.590;10.054;2022-07-26T08:32:43;2.15;;;0.80;;
21494;SDS011;10909;53.590;10.054;2022-07-26T08:35:09;4.20;;;1.17;;
21494;SDS011;10909;53.590;10.054;2022-07-26T08:37:35;2.13;;;0.85;;
21494;SDS011;10909;53.590;10.054;2022-07-26T08:40:01;2.03;;;1.00;;
21494;SDS011;10909;53.590;10.054;2022-07-26T08:42:31;4.10;;;1.15;;
21494;SDS011;10909;53.590;10.054;2022-07-26T08:44:56;1.40;;;0.80;;
21494;SDS011;10909;53.590;10.054;2022-07-26T08:47:23;2.05;;;0.82;;
21494;SDS011;10909;53.590;10.054;2022-07-26T08:49:49;2.08;;;0.60;;
21494;SDS011;10909;53.590;10.054;2022-07-26T08:52:14;1.10;;;0.65;;
21494;SDS011;10909;53.590;10.054;2022-07-26T08:54:41;4.22;;;1.10;;
21494;SDS011;10909;53.590;10.054;2022-07-26T08:57:12;2.08;;;0.80;;
21494;SDS011;10909;53.590;10.054;2022-07-26T08:59:38;1.25;;;0.70;;
21494;SDS011;10909;53.590;10.054;2022-07-26T09:02:05;1.02;;;0.60;;
21494;SDS011;10909;53.590;10.054;2022-07-26T09:04:34;1.23;;;0.80;;
21494;SDS011;10909;53.590;10.054;2022-07-26T09:07:08;1.00;;;0.55;;
21494;SDS011;10909;53.590;10.054;2022-07-26T09:09:40;1.48;;;0.65;;
21494;SDS011;10909;53.590;10.054;2022-07-26T09:12:22;1.85;;;0.50;;
21494;SDS011;10909;53.590;10.054;2022-07-26T09:14:49;0.98;;;0.57;;
21494;SDS011;10909;53.590;10.054;2022-07-26T09:17:16;1.35;;;0.60;;
21494;SDS011;10909;53.590;10.054;2022-07-26T09:19:44;0.80;;;0.60;;
21494;SDS011;10909;53.590;10.054;2022-07-26T09:22:11;2.75;;;0.77;;
21494;SDS011;10909;53.590;10.054;2022-07-26T09:24:45;1.40;;;0.68;;
21494;SDS011;10909;53.590;10.054;2022-07-26T09:27:12;3.15;;;1.02;;
21494;SDS011;10909;53.590;10.054;2022-07-26T09:29:52;2.00;;;0.90;;
21494;SDS011;10909;53.590;10.054;2022-07-26T09:32:28;1.27;;;0.77;;
21494;SDS011;10909;53.590;10.054;2022-07-26T09:34:55;2.40;;;0.93;;
21494;SDS011;10909;53.590;10.054;2022-07-26T09:37:34;2.45;;;0.93;;
21494;SDS011;10909;53.590;10.054;2022-07-26T09:40:02;2.53;;;0.82;;
21494;SDS011;10909;53.590;10.054;2022-07-26T09:42:31;1.67;;;0.80;;
21494;SDS011;10909;53.590;10.054;2022-07-26T09:44:56;1.23;;;0.60;;
21494;SDS011;10909;53.590;10.054;2022-07-26T09:47:35;2.45;;;0.70;;
21494;SDS011;10909;53.590;10.054;2022-07-26T09:50:15;0.93;;;0.70;;
21494;SDS011;10909;53.590;10.054;2022-07-26T09:55:29;2.60;;;0.70;;
21494;SDS011;10909;53.590;10.054;2022-07-26T09:57:55;1.70;;;1.00;;
21494;SDS011;10909;53.590;10.054;2022-07-26T10:00:23;2.22;;;0.93;;
21494;SDS011;10909;53.590;10.054;2022-07-26T10:02:50;2.45;;;0.95;;
21494;SDS011;10909;53.590;10.054;2022-07-26T10:05:17;1.95;;;0.70;;
21494;SDS011;10909;53.590;10.054;2022-07-26T10:07:45;1.73;;;0.73;;
21494;SDS011;10909;53.590;10.054;2022-07-26T10:10:20;3.53;;;0.90;;
21494;SDS011;10909;53.590;10.054;2022-07-26T10:12:49;1.60;;;0.80;;
21494;SDS011;10909;53.590;10.054;2022-07-26T10:15:32;2.58;;;0.90;;
21494;SDS011;10909;53.590;10.054;2022-07-26T10:17:58;2.35;;;1.13;;
21494;SDS011;10909;53.590;10.054;2022-07-26T10:23:38;3.83;;;0.93;;
21494;SDS011;10909;53.590;10.054;2022-07-26T10:26:10;1.67;;;1.00;;
21494;SDS011;10909;53.590;10.054;2022-07-26T10:31:43;1.75;;;0.95;;
21494;SDS011;10909;53.590;10.054;2022-07-26T10:34:11;1.52;;;1.00;;
21494;SDS011;10909;53.590;10.054;2022-07-26T10:36:59;4.80;;;1.00;;
21494;SDS011;10909;53.590;10.054;2022-07-26T10:39:29;3.42;;;1.00;;
21494;SDS011;10909;53.590;10.054;2022-07-26T10:42:08;0.82;;;0.50;;
21494;SDS011;10909;53.590;10.054;2022-07-26T10:44:38;3.03;;;0.80;;
21494;SDS011;10909;53.590;10.054;2022-07-26T10:47:20;1.17;;;0.75;;
21494;SDS011;10909;53.590;10.054;2022-07-26T10:49:56;2.88;;;0.77;;
21494;SDS011;10909;53.590;10.054;2022-07-26T10:52:29;1.85;;;1.20;;
21494;SDS011;10909;53.590;10.054;2022-07-26T10:59:55;1.38;;;0.82;;
21494;SDS011;10909;53.590;10.054;2022-07-26T11:02:23;2.25;;;0.93;;
21494;SDS011;10909;53.590;10.054;2022-07-26T11:04:59;1.60;;;0.80;;
21494;SDS011;10909;53.590;10.054;2022-07-26T11:10:21;3.92;;;0.82;;
21494;SDS011;10909;53.590;10.054;2022-07-26T11:13:05;4.03;;;1.08;;
21494;SDS011;10909;53.590;10.054;2022-07-26T11:15:33;2.00;;;0.70;;
21494;SDS011;10909;53.590;10.054;2022-07-26T11:18:07;3.10;;;1.17;;
21494;SDS011;10909;53.590;10.054;2022-07-26T11:20:35;3.30;;;1.20;;
21494;SDS011;10909;53.590;10.054;2022-07-26T11:23:17;2.95;;;1.27;;
21494;SDS011;10909;53.590;10.054;2022-07-26T11:28:52;3.53;;;1.38;;
21494;SDS011;10909;53.590;10.054;2022-07-26T11:31:40;4.05;;;1.20;;
21494;SDS011;10909;53.590;10.054;2022-07-26T11:34:07;2.63;;;1.20;;
21494;SDS011;10909;53.590;10.054;2022-07-26T11:36:40;3.88;;;1.38;;
21494;SDS011;10909;53.590;10.054;2022-07-26T11:39:08;1.58;;;0.80;;
21494;SDS011;10909;53.590;10.054;2022-07-26T11:41:37;3.67;;;1.48;;
21494;SDS011;10909;53.590;10.054;2022-07-26T11:44:04;3.65;;;1.55;;
21494;SDS011;10909;53.590;10.054;2022-07-26T11:46:37;4.05;;;1.20;;
21494;SDS011;10909;53.590;10.054;2022-07-26T11:49:10;4.95;;;1.25;;
21494;SDS011;10909;53.590;10.054;2022-07-26T11:51:48;5.75;;;1.42;;
21494;SDS011;10909;53.590;10.054;2022-07-26T11:54:15;1.83;;;1.02;;
21494;SDS011;10909;53.590;10.054;2022-07-26T11:56:48;2.53;;;1.13;;
21494;SDS011;10909;53.590;10.054;2022-07-26T11:59:15;5.05;;;1.45;;
21494;SDS011;10909;53.590;10.054;2022-07-26T12:01:43;5.40;;;1.70;;
21494;SDS011;10909;53.590;10.054;2022-07-26T12:04:20;4.07;;;1.65;;
21494;SDS011;10909;53.590;10.054;2022-07-26T12:06:48;5.78;;;1.58;;
21494;SDS011;10909;53.590;10.054;2022-07-26T12:09:28;4.07;;;1.52;;
21494;SDS011;10909;53.590;10.054;2022-07-26T12:11:56;4.22;;;1.40;;
21494;SDS011;10909;53.590;10.054;2022-07-26T12:14:28;3.05;;;1.38;;
21494;SDS011;10909;53.590;10.054;2022-07-26T12:16:57;3.83;;;1.38;;
21494;SDS011;10909;53.590;10.054;2022-07-26T12:21:51;2.72;;;1.15;;
21494;SDS011;10909;53.590;10.054;2022-07-26T12:27:19;5.25;;;1.30;;
21494;SDS011;10909;53.590;10.054;2022-07-26T12:29:46;4.60;;;1.20;;
21494;SDS011;10909;53.590;10.054;2022-07-26T12:32:19;4.20;;;1.33;;
21494;SDS011;10909;53.590;10.054;2022-07-26T12:37:52;2.30;;;1.10;;
21494;SDS011;10909;53.590;10.054;2022-07-26T12:40:24;3.58;;;1.02;;
21494;SDS011;10909;53.590;10.054;2022-07-26T12:45:18;4.25;;;1.30;;
21494;SDS011;10909;53.590;10.054;2022-07-26T12:47:46;3.92;;;1.20;;
21494;SDS011;10909;53.590;10.054;2022-07-26T12:50:14;3.00;;;1.20;;
21494;SDS011;10909;53.590;10.054;2022-07-26T12:52:41;4.85;;;1.50;;
21494;SDS011;10909;53.590;10.054;2022-07-26T12:55:13;3.50;;;1.33;;
21494;SDS011;10909;53.590;10.054;2022-07-26T12:57:42;3.22;;;1.20;;
21494;SDS011;10909;53.590;10.054;2022-07-26T13:00:15;6.03;;;1.50;;
21494;SDS011;10909;53.590;10.054;2022-07-26T13:02:46;4.03;;;1.55;;
21494;SDS011;10909;53.590;10.054;2022-07-26T13:05:12;3.03;;;1.20;;
21494;SDS011;10909;53.590;10.054;2022-07-26T13:07:42;3.40;;;1.50;;
21494;SDS011;10909;53.590;10.054;2022-07-26T13:10:08;2.55;;;1.15;;
21494;SDS011;10909;53.590;10.054;2022-07-26T13:12:37;3.15;;;1.25;;
21494;SDS011;10909;53.590;10.054;2022-07-26T13:15:04;3.95;;;1.40;;
21494;SDS011;10909;53.590;10.054;2022-07-26T13:17:30;1.45;;;0.98;;
21494;SDS011;10909;53.590;10.054;2022-07-26T13:19:58;3.03;;;1.50;;
21494;SDS011;10909;53.590;10.054;2022-07-26T13:22:23;3.10;;;1.30;;
21494;SDS011;10909;53.590;10.054;2022-07-26T13:24:49;2.38;;;1.15;;
21494;SDS011;10909;53.590;10.054;2022-07-26T13:27:15;2.58;;;1.58;;
21494;SDS011;10909;53.590;10.054;2022-07-26T13:29:40;2.08;;;1.02;;
21494;SDS011;10909;53.590;10.054;2022-07-26T13:32:06;1.95;;;1.00;;
21494;SDS011;10909;53.590;10.054;2022-07-26T13:34:32;2.50;;;1.40;;
21494;SDS011;10909;53.590;10.054;2022-07-26T13:37:00;2.50;;;1.00;;
21494;SDS011;10909;53.590;10.054;2022-07-26T13:39:26;5.65;;;1.23;;
21494;SDS011;10909;53.590;10.054;2022-07-26T13:41:52;2.63;;;1.10;;
21494;SDS011;10909;53.590;10.054;2022-07-26T13:44:19;2.17;;;1.25;;
21494;SDS011;10909;53.590;10.054;2022-07-26T13:46:45;3.38;;;1.10;;
21494;SDS011;10909;53.590;10.054;2022-07-26T13:49:11;3.53;;;1.10;;
21494;SDS011;10909;53.590;10.054;2022-07-26T13:51:37;3.97;;;1.20;;
21494;SDS011;10909;53.590;10.054;2022-07-26T13:54:22;2.45;;;1.30;;
21494;SDS011;10909;53.590;10.054;2022-07-26T13:56:56;2.13;;;1.20;;
21494;SDS011;10909;53.590;10.054;2022-07-26T13:59:23;2.50;;;1.35;;
21494;SDS011;10909;53.590;10.054;2022-07-26T14:01:49;1.98;;;1.00;;
21494;SDS011;10909;53.590;10.054;2022-07-26T14:04:16;2.92;;;1.10;;
21494;SDS011;10909;53.590;10.054;2022-07-26T14:06:48;3.25;;;1.20;;
21494;SDS011;10909;53.590;10.054;2022-07-26T14:09:14;4.35;;;1.15;;
21494;SDS011;10909;53.590;10.054;2022-07-26T14:11:42;4.55;;;1.23;;
21494;SDS011;10909;53.590;10.054;2022-07-26T14:14:08;3.83;;;1.40;;
21494;SDS011;10909;53.590;10.054;2022-07-26T14:16:37;2.80;;;1.13;;
21494;SDS011;10909;53.590;10.054;2022-07-26T14:19:03;3.60;;;1.30;;
21494;SDS011;10909;53.590;10.054;2022-07-26T14:21:30;3.10;;;1.38;;
21494;SDS011;10909;53.590;10.054;2022-07-26T14:23:58;2.58;;;1.30;;
21494;SDS011;10909;53.590;10.054;2022-07-26T14:26:27;2.30;;;1.10;;
21494;SDS011;10909;53.590;10.054;2022-07-26T14:28:53;2.55;;;1.25;;
21494;SDS011;10909;53.590;10.054;2022-07-26T14:31:37;4.88;;;1.42;;
21494;SDS011;10909;53.590;10.054;2022-07-26T14:34:03;1.80;;;1.20;;
21494;SDS011;10909;53.590;10.054;2022-07-26T14:36:29;2.60;;;1.10;;
21494;SDS011;10909;53.590;10.054;2022-07-26T14:38:54;3.25;;;1.13;;
21494;SDS011;10909;53.590;10.054;2022-07-26T14:41:23;2.75;;;1.10;;
21494;SDS011;10909;53.590;10.054;2022-07-26T14:43:49;2.88;;;1.25;;
21494;SDS011;10909;53.590;10.054;2022-07-26T14:49:17;3.15;;;1.27;;
21494;SDS011;10909;53.590;10.054;2022-07-26T14:51:43;3.17;;;1.13;;
21494;SDS011;10909;53.590;10.054;2022-07-26T14:54:10;3.28;;;1.50;;
21494;SDS011;10909;53.590;10.054;2022-07-26T14:56:46;2.80;;;1.30;;
21494;SDS011;10909;53.590;10.054;2022-07-26T14:59:13;2.33;;;1.30;;
21494;SDS011;10909;53.590;10.054;2022-07-26T15:01:38;1.45;;;1.10;;
21494;SDS011;10909;53.590;10.054;2022-07-26T15:04:04;2.20;;;1.05;;
21494;SDS011;10909;53.590;10.054;2022-07-26T15:06:30;3.10;;;1.30;;
21494;SDS011;10909;53.590;10.054;2022-07-26T15:08:55;1.75;;;1.13;;
21494;SDS011;10909;53.590;10.054;2022-07-26T15:11:33;1.50;;;1.08;;
21494;SDS011;10909;53.590;10.054;2022-07-26T15:13:59;2.53;;;1.35;;